createdAt,value
2018-05-11T00:00:48.548Z,5.40
2018-05-11T00:03:16.101Z,6.30
2018-05-11T00:05:43.804Z,6.68
2018-05-11T00:08:11.424Z,5.78
2018-05-11T00:10:38.961Z,6.05
2018-05-11T00:13:06.540Z,5.50
2018-05-11T00:15:34.097Z,6.45
2018-05-11T00:18:01.645Z,5.65
2018-05-11T00:20:29.208Z,6.82
2018-05-11T00:22:56.736Z,7.07
2018-05-11T00:25:24.253Z,5.72
2018-05-11T00:27:52.040Z,5.28
2018-05-11T00:30:19.573Z,6.72
2018-05-11T00:32:47.101Z,6.82
2018-05-11T00:35:14.980Z,6.35
2018-05-11T00:37:42.513Z,6.60
2018-05-11T00:40:10.036Z,6.37
2018-05-11T00:42:38.120Z,5.72
2018-05-11T00:45:05.640Z,7.43
2018-05-11T00:47:33.157Z,6.78
2018-05-11T00:50:00.713Z,7.20
2018-05-11T00:52:28.248Z,6.90
2018-05-11T00:54:55.801Z,6.50
2018-05-11T00:57:23.467Z,6.47
2018-05-11T00:59:50.981Z,7.10
2018-05-11T01:02:18.512Z,5.43
2018-05-11T01:04:46.877Z,6.35
2018-05-11T01:07:14.332Z,7.20
2018-05-11T01:09:41.860Z,6.00
2018-05-11T01:12:09.418Z,6.25
2018-05-11T01:14:37.434Z,7.10
2018-05-11T01:17:04.957Z,6.95
2018-05-11T01:19:32.736Z,7.22
2018-05-11T01:22:00.269Z,6.25
2018-05-11T01:24:27.804Z,6.68
2018-05-11T01:26:55.361Z,8.07
2018-05-11T01:29:22.882Z,6.75
2018-05-11T01:31:50.395Z,6.80
2018-05-11T01:34:18.196Z,6.90
2018-05-11T01:36:45.713Z,6.53
2018-05-11T01:39:13.229Z,6.22
2018-05-11T01:41:40.868Z,6.15
2018-05-11T01:44:08.604Z,6.32
2018-05-11T01:46:36.132Z,5.85
2018-05-11T01:49:03.785Z,5.95
2018-05-11T01:51:31.317Z,7.35
2018-05-11T01:53:58.841Z,5.95
2018-05-11T01:56:26.645Z,6.37
2018-05-11T01:58:54.169Z,6.20
2018-05-11T02:01:21.689Z,6.00
2018-05-11T02:03:49.630Z,6.55
2018-05-11T02:06:17.148Z,5.82
2018-05-11T02:08:44.692Z,6.15
2018-05-11T02:11:12.261Z,6.82
2018-05-11T02:13:39.813Z,6.75
2018-05-11T02:16:07.361Z,6.15
2018-05-11T02:18:35.166Z,5.95
2018-05-11T02:21:02.643Z,6.43
2018-05-11T02:23:30.153Z,4.75
2018-05-11T02:25:57.914Z,5.95
2018-05-11T02:28:25.437Z,6.00
2018-05-11T02:30:52.966Z,6.90
2018-05-11T02:33:20.866Z,7.90
2018-05-11T02:35:48.387Z,5.45
2018-05-11T02:38:15.906Z,6.80
2018-05-11T02:40:43.468Z,7.70
2018-05-11T02:43:11.000Z,6.47
2018-05-11T02:45:38.513Z,6.35
2018-05-11T02:48:06.518Z,6.70
2018-05-11T02:50:34.049Z,6.62
2018-05-11T02:53:01.573Z,7.10
2018-05-11T02:55:29.388Z,8.23
2018-05-11T02:57:56.912Z,6.65
2018-05-11T03:00:24.464Z,7.70
2018-05-11T03:02:52.052Z,7.25
2018-05-11T03:05:19.578Z,6.28
2018-05-11T03:07:47.331Z,6.43
2018-05-11T03:10:15.366Z,6.53
2018-05-11T03:12:43.273Z,6.57
2018-05-11T03:15:10.792Z,6.15
2018-05-11T03:17:38.664Z,6.07
2018-05-11T03:20:06.205Z,7.47
2018-05-11T03:22:33.724Z,6.00
2018-05-11T03:25:01.537Z,6.35
2018-05-11T03:27:29.071Z,5.90
2018-05-11T03:29:56.592Z,6.37
2018-05-11T03:32:24.316Z,6.82
2018-05-11T03:34:51.850Z,6.47
2018-05-11T03:37:19.373Z,6.95
2018-05-11T03:39:47.264Z,6.43
2018-05-11T03:42:14.792Z,7.30
2018-05-11T03:44:42.422Z,7.62
2018-05-11T03:47:10.392Z,7.43
2018-05-11T03:49:37.908Z,7.20
2018-05-11T03:52:05.431Z,6.25
2018-05-11T03:54:32.995Z,6.50
2018-05-11T03:57:00.518Z,6.43
2018-05-11T03:59:28.029Z,6.60
2018-05-11T04:02:07.524Z,6.47
2018-05-11T04:04:46.688Z,7.20
2018-05-11T04:07:26.081Z,6.70
2018-05-11T04:09:53.624Z,6.22
2018-05-11T04:12:21.146Z,6.32
2018-05-11T04:14:48.713Z,7.85
2018-05-11T04:17:16.236Z,7.18
2018-05-11T04:19:43.755Z,6.25
2018-05-11T04:22:11.760Z,7.15
2018-05-11T04:24:39.281Z,7.28
2018-05-11T04:27:06.811Z,6.93
2018-05-11T04:29:34.384Z,6.90
2018-05-11T04:32:01.901Z,6.28
2018-05-11T04:34:29.425Z,6.60
2018-05-11T04:36:56.981Z,6.95
2018-05-11T04:39:24.525Z,6.90
2018-05-11T04:41:52.060Z,6.97
2018-05-11T04:44:19.632Z,7.03
2018-05-11T04:46:47.195Z,6.37
2018-05-11T04:49:14.712Z,6.68
2018-05-11T04:51:42.700Z,6.75
2018-05-11T04:54:10.232Z,6.72
2018-05-11T04:56:37.744Z,7.10
2018-05-11T04:59:05.551Z,7.25
2018-05-11T05:01:33.065Z,7.12
2018-05-11T05:04:01.521Z,6.97
2018-05-11T05:06:29.073Z,7.18
2018-05-11T05:08:56.586Z,6.72
2018-05-11T05:11:24.110Z,7.30
2018-05-11T05:13:51.733Z,7.47
2018-05-11T05:16:19.253Z,7.20
2018-05-11T05:18:46.767Z,6.75
2018-05-11T05:21:14.516Z,6.78
2018-05-11T05:23:42.031Z,6.95
2018-05-11T05:26:09.549Z,7.35
2018-05-11T05:28:37.101Z,6.75
2018-05-11T05:31:04.622Z,6.18
2018-05-11T05:33:32.208Z,6.28
2018-05-11T05:35:59.768Z,7.03
2018-05-11T05:38:27.285Z,6.47
2018-05-11T05:40:54.830Z,7.35
2018-05-11T05:43:22.484Z,6.72
2018-05-11T05:45:50.042Z,7.22
2018-05-11T05:48:17.561Z,6.50
2018-05-11T05:50:45.121Z,7.12
2018-05-11T05:53:12.647Z,7.03
2018-05-11T05:55:40.190Z,6.30
2018-05-11T05:58:07.906Z,6.87
2018-05-11T06:00:35.427Z,7.20
2018-05-11T06:03:02.940Z,5.87
2018-05-11T06:05:30.785Z,7.20
2018-05-11T06:07:58.298Z,6.73
2018-05-11T06:10:25.810Z,6.80
2018-05-11T06:12:53.868Z,7.20
2018-05-11T06:15:21.380Z,6.10
2018-05-11T06:17:48.900Z,5.70
2018-05-11T06:20:16.653Z,6.07
2018-05-11T06:22:44.645Z,6.30
2018-05-11T06:25:12.182Z,5.60
2018-05-11T06:27:39.741Z,5.67
2018-05-11T06:30:07.304Z,5.40
2018-05-11T06:32:34.843Z,5.43
2018-05-11T06:35:02.521Z,5.67
2018-05-11T06:37:30.072Z,5.30
2018-05-11T06:39:57.622Z,6.30
2018-05-11T06:42:25.240Z,4.30
2018-05-11T06:44:52.780Z,4.07
2018-05-11T06:47:20.326Z,4.57
2018-05-11T06:49:47.872Z,5.50
2018-05-11T06:52:15.393Z,4.97
2018-05-11T06:54:42.917Z,4.63
2018-05-11T06:57:10.654Z,5.10
2018-05-11T06:59:38.169Z,4.33
2018-05-11T07:02:05.689Z,5.03
2018-05-11T07:04:33.236Z,4.60
2018-05-11T07:07:00.770Z,6.43
2018-05-11T07:09:28.297Z,5.23
2018-05-11T07:11:55.993Z,5.83
2018-05-11T07:14:23.525Z,6.37
2018-05-11T07:16:51.062Z,7.80
2018-05-11T07:19:18.826Z,6.47
2018-05-11T07:21:46.333Z,7.00
2018-05-11T07:24:13.876Z,7.00
2018-05-11T07:26:41.801Z,8.63
2018-05-11T07:29:09.362Z,10.60
2018-05-11T07:31:36.903Z,9.80
2018-05-11T07:34:04.807Z,10.27
2018-05-11T07:36:32.437Z,11.67
2018-05-11T07:39:00.002Z,12.40
2018-05-11T07:41:27.856Z,10.13
2018-05-11T07:43:55.374Z,10.87
2018-05-11T07:46:23.080Z,12.90
2018-05-11T07:48:50.746Z,14.97
2018-05-11T07:51:18.269Z,15.23
2018-05-11T07:53:45.822Z,15.10
2018-05-11T07:56:13.394Z,18.03
2018-05-11T07:58:40.935Z,16.13
2018-05-11T08:01:08.457Z,14.97
2018-05-11T08:03:36.421Z,16.47
2018-05-11T08:06:03.980Z,16.40
2018-05-11T08:08:31.582Z,15.83
2018-05-11T08:10:59.292Z,19.93
2018-05-11T08:13:26.832Z,19.70
2018-05-11T08:15:54.359Z,21.30
2018-05-11T08:18:22.091Z,22.60
2018-05-11T08:20:49.622Z,22.20
2018-05-11T08:23:17.245Z,24.13
2018-05-11T08:25:44.800Z,20.83
2018-05-11T08:28:12.311Z,20.80
2018-05-11T08:30:39.843Z,20.40
2018-05-11T08:33:07.441Z,20.00
2018-05-11T08:35:34.967Z,21.03
2018-05-11T08:38:02.508Z,20.10
2018-05-11T08:40:30.078Z,19.10
2018-05-11T08:42:57.665Z,20.40
2018-05-11T08:45:25.199Z,18.67
2018-05-11T08:47:52.757Z,19.23
2018-05-11T08:50:20.285Z,16.20
2018-05-11T08:52:47.833Z,20.47
2018-05-11T08:55:15.765Z,19.40
2018-05-11T08:57:43.297Z,21.20
2018-05-11T09:00:10.836Z,22.70
2018-05-11T09:02:38.554Z,20.93
2018-05-11T09:05:06.226Z,19.10
2018-05-11T09:07:33.887Z,23.80
2018-05-11T09:10:02.435Z,21.37
2018-05-11T09:12:30.302Z,22.93
2018-05-11T09:14:59.147Z,21.00
2018-05-11T09:17:26.882Z,21.23
2018-05-11T09:19:54.653Z,19.03
2018-05-11T09:22:22.316Z,20.23
2018-05-11T09:24:49.904Z,18.30
2018-05-11T09:27:17.446Z,16.37
2018-05-11T09:29:45.076Z,15.80
2018-05-11T09:32:12.654Z,14.70
2018-05-11T09:34:40.625Z,15.40
2018-05-11T09:37:08.168Z,15.50
2018-05-11T09:39:36.059Z,14.77
2018-05-11T09:42:03.502Z,16.93
2018-05-11T09:44:31.022Z,16.60
2018-05-11T09:46:58.573Z,15.40
2018-05-11T09:49:26.193Z,17.13
2018-05-11T09:51:53.675Z,15.03
2018-05-11T09:54:21.377Z,17.77
2018-05-11T09:56:48.901Z,16.80
2018-05-11T09:59:16.421Z,15.37
2018-05-11T10:01:44.201Z,14.50
2018-05-11T10:04:11.717Z,15.23
2018-05-11T10:06:39.248Z,14.77
2018-05-11T10:09:06.950Z,15.73
2018-05-11T10:11:34.482Z,14.40
2018-05-11T10:14:02.020Z,15.37
2018-05-11T10:16:29.748Z,15.20
2018-05-11T10:18:57.408Z,15.03
2018-05-11T10:21:25.037Z,15.80
2018-05-11T10:23:52.633Z,16.50
2018-05-11T10:26:20.180Z,16.10
2018-05-11T10:28:47.738Z,16.80
2018-05-11T10:31:15.596Z,15.63
2018-05-11T10:33:43.125Z,15.50
2018-05-11T10:36:10.649Z,16.27
2018-05-11T10:38:38.222Z,17.53
2018-05-11T10:41:05.761Z,16.57
2018-05-11T10:43:33.298Z,16.40
2018-05-11T10:46:01.153Z,17.40
2018-05-11T10:48:28.764Z,17.50
2018-05-11T10:50:56.341Z,16.57
2018-05-11T10:53:24.148Z,17.47
2018-05-11T10:55:51.728Z,15.97
2018-05-11T10:58:19.293Z,16.37
2018-05-11T11:00:47.025Z,16.60
2018-05-11T11:03:14.553Z,15.90
2018-05-11T11:05:42.076Z,16.30
2018-05-11T11:08:10.042Z,15.70
2018-05-11T11:10:37.561Z,14.47
2018-05-11T11:13:05.098Z,13.23
2018-05-11T11:15:32.663Z,12.60
2018-05-11T11:18:00.176Z,13.10
2018-05-11T11:20:27.693Z,14.37
2018-05-11T11:22:55.261Z,13.57
2018-05-11T11:25:22.853Z,14.50
2018-05-11T11:27:50.386Z,13.60
2018-05-11T11:30:17.946Z,15.80
2018-05-11T11:32:45.594Z,15.27
2018-05-11T11:35:13.200Z,15.30
2018-05-11T11:37:40.810Z,13.27
2018-05-11T11:40:08.329Z,12.87
2018-05-11T11:42:35.866Z,11.33
2018-05-11T11:45:03.431Z,12.20
2018-05-11T11:47:30.987Z,12.93
2018-05-11T11:49:58.518Z,14.87
2018-05-11T11:52:26.285Z,13.77
2018-05-11T11:54:53.822Z,15.10
2018-05-11T11:57:26.187Z,15.03
2018-05-11T11:59:53.993Z,14.30
2018-05-11T12:02:21.661Z,12.97
2018-05-11T12:04:51.633Z,13.00
2018-05-11T12:07:20.465Z,13.00
2018-05-11T12:09:48.105Z,13.80
2018-05-11T12:12:16.816Z,13.00
2018-05-11T12:14:45.705Z,13.67
2018-05-11T12:17:13.674Z,13.10
2018-05-11T12:19:42.108Z,13.70
2018-05-11T12:22:10.032Z,13.13
2018-05-11T12:24:38.095Z,16.43
2018-05-11T12:27:06.270Z,14.70
2018-05-11T12:29:34.446Z,13.70
2018-05-11T12:32:03.219Z,14.93
2018-05-11T12:34:31.200Z,13.30
2018-05-11T12:36:59.167Z,13.20
2018-05-11T12:39:28.689Z,14.33
2018-05-11T12:41:57.229Z,12.67
2018-05-11T12:44:25.717Z,13.70
2018-05-11T12:46:54.005Z,12.30
2018-05-11T12:49:21.878Z,12.37
2018-05-11T12:51:49.643Z,14.73
2018-05-11T12:54:17.197Z,13.07
2018-05-11T12:56:45.790Z,13.80
2018-05-11T12:59:13.653Z,14.80
2018-05-11T13:01:41.277Z,13.30
2018-05-11T13:04:09.649Z,13.57
2018-05-11T13:06:37.405Z,11.37
2018-05-11T13:09:05.225Z,12.47
2018-05-11T13:11:32.779Z,12.30
2018-05-11T13:14:00.529Z,13.27
2018-05-11T13:16:28.375Z,12.80
2018-05-11T13:18:56.389Z,13.53
2018-05-11T13:21:24.558Z,12.50
2018-05-11T13:23:52.421Z,11.83
2018-05-11T13:26:20.268Z,12.30
2018-05-11T13:28:48.147Z,13.93
2018-05-11T13:31:16.801Z,13.60
2018-05-11T13:33:44.544Z,13.33
2018-05-11T13:36:12.345Z,14.77
2018-05-11T13:38:40.540Z,13.13
2018-05-11T13:41:08.137Z,13.33
2018-05-11T13:43:36.171Z,11.50
2018-05-11T13:46:03.936Z,13.83
2018-05-11T13:48:31.515Z,14.30
2018-05-11T13:50:59.506Z,14.20
2018-05-11T13:53:27.047Z,12.97
2018-05-11T13:55:55.407Z,13.30
2018-05-11T13:58:25.147Z,13.80
2018-05-11T14:00:53.387Z,13.40
2018-05-11T14:03:21.741Z,14.43
2018-05-11T14:05:49.855Z,14.17
2018-05-11T14:08:19.654Z,14.27
2018-05-11T14:10:47.311Z,13.63
2018-05-11T14:13:15.301Z,15.97
2018-05-11T14:15:42.868Z,14.17
2018-05-11T14:18:10.454Z,15.43
2018-05-11T14:20:40.416Z,13.97
2018-05-11T14:23:08.372Z,13.20
2018-05-11T14:25:36.252Z,12.60
2018-05-11T14:28:04.213Z,12.47
2018-05-11T14:30:32.495Z,13.67
2018-05-11T14:33:00.034Z,12.40
2018-05-11T14:35:27.649Z,13.90
2018-05-11T14:37:56.282Z,14.50
2018-05-11T14:40:24.578Z,13.80
2018-05-11T14:42:53.392Z,13.23
2018-05-11T14:45:21.949Z,14.83
2018-05-11T14:47:52.473Z,12.53
2018-05-11T14:50:20.244Z,15.67
2018-05-11T14:52:47.770Z,14.67
2018-05-11T14:55:18.464Z,12.00
2018-05-11T14:57:46.144Z,13.13
2018-05-11T15:00:13.856Z,13.00
2018-05-11T15:02:41.864Z,12.13
2018-05-11T15:05:09.672Z,14.70
2018-05-11T15:07:37.201Z,12.67
2018-05-11T15:10:05.010Z,13.30
2018-05-11T15:12:32.661Z,14.33
2018-05-11T15:15:02.085Z,13.53
2018-05-11T15:17:30.842Z,14.73
2018-05-11T15:19:58.840Z,12.67
2018-05-11T15:22:27.630Z,13.97
2018-05-11T15:24:55.392Z,12.73
2018-05-11T15:27:23.286Z,12.50
2018-05-11T15:29:53.078Z,11.73
2018-05-11T15:32:22.155Z,12.87
2018-05-11T15:34:51.805Z,14.53
2018-05-11T15:37:19.922Z,13.30
2018-05-11T15:39:47.473Z,13.00
2018-05-11T15:42:15.687Z,12.67
2018-05-11T15:44:43.228Z,14.10
2018-05-11T15:47:10.817Z,12.73
2018-05-11T15:49:39.825Z,12.50
2018-05-11T15:52:07.367Z,14.17
2018-05-11T15:54:34.933Z,14.77
2018-05-11T15:57:02.562Z,14.37
2018-05-11T15:59:30.103Z,12.87
2018-05-11T16:01:57.633Z,14.23
2018-05-11T16:04:25.528Z,13.27
2018-05-11T16:06:53.121Z,14.60
2018-05-11T16:09:20.892Z,13.80
2018-05-11T16:11:48.460Z,13.30
2018-05-11T16:14:16.622Z,12.93
2018-05-11T16:16:45.016Z,14.07
2018-05-11T16:19:12.730Z,13.30
2018-05-11T16:21:40.261Z,14.40
2018-05-11T16:24:07.781Z,13.90
2018-05-11T16:26:35.616Z,12.40
2018-05-11T16:29:03.198Z,13.93
2018-05-11T16:31:30.740Z,12.00
2018-05-11T16:33:58.510Z,16.00
2018-05-11T16:36:26.051Z,14.87
2018-05-11T16:38:53.574Z,12.30
2018-05-11T16:41:21.294Z,14.57
2018-05-11T16:43:49.031Z,13.63
2018-05-11T16:46:16.935Z,13.60
2018-05-11T16:48:44.495Z,15.57
2018-05-11T16:51:12.117Z,16.67
2018-05-11T16:53:39.589Z,14.90
2018-05-11T16:56:08.298Z,14.30
2018-05-11T16:58:35.820Z,17.83
2018-05-11T17:01:03.340Z,15.63
2018-05-11T17:03:31.061Z,14.73
2018-05-11T17:05:58.640Z,14.90
2018-05-11T17:08:26.170Z,14.50
2018-05-11T17:10:53.749Z,14.20
2018-05-11T17:13:21.274Z,14.97
2018-05-11T17:15:48.802Z,17.03
2018-05-11T17:18:16.359Z,15.00
2018-05-11T17:20:43.885Z,16.80
2018-05-11T17:23:11.414Z,13.73
2018-05-11T17:25:39.088Z,15.40
2018-05-11T17:28:07.024Z,14.27
2018-05-11T17:30:34.549Z,16.50
2018-05-11T17:33:02.105Z,14.27
2018-05-11T17:35:29.657Z,13.90
2018-05-11T17:37:58.143Z,13.80
2018-05-11T17:40:25.774Z,14.60
2018-05-11T17:42:53.413Z,14.10
2018-05-11T17:45:21.135Z,16.33
2018-05-11T17:47:48.726Z,15.70
2018-05-11T17:50:16.449Z,17.60
2018-05-11T17:52:43.992Z,17.63
2018-05-11T17:55:11.789Z,16.90
2018-05-11T17:57:39.319Z,18.17
2018-05-11T18:00:06.845Z,17.00
2018-05-11T18:02:34.637Z,17.10
2018-05-11T18:05:02.177Z,17.70
2018-05-11T18:07:29.705Z,17.33
2018-05-11T18:09:57.418Z,19.23
2018-05-11T18:12:25.172Z,20.07
2018-05-11T18:14:52.689Z,19.67
2018-05-11T18:17:20.319Z,19.50
2018-05-11T18:19:47.876Z,18.50
2018-05-11T18:22:15.403Z,19.03
2018-05-11T18:24:43.184Z,17.90
2018-05-11T18:27:10.700Z,17.47
2018-05-11T18:29:38.224Z,18.30
2018-05-11T18:32:06.290Z,20.00
2018-05-11T18:34:33.824Z,20.40
2018-05-11T18:37:01.380Z,19.57
2018-05-11T18:39:29.161Z,20.10
2018-05-11T18:41:57.243Z,19.80
2018-05-11T18:44:25.091Z,17.63
2018-05-11T18:46:52.953Z,19.03
2018-05-11T18:51:54.854Z,17.83
2018-05-11T18:54:22.808Z,18.77
2018-05-11T18:56:50.382Z,18.33
2018-05-11T18:59:18.448Z,16.87
2018-05-11T19:01:46.384Z,18.00
2018-05-11T19:04:13.913Z,18.30
2018-05-11T19:06:42.256Z,16.67
2018-05-11T19:09:10.200Z,18.40
2018-05-11T19:11:38.094Z,16.37
2018-05-11T19:14:06.575Z,17.10
2018-05-11T19:16:34.734Z,16.53
2018-05-11T19:19:02.409Z,15.27
2018-05-11T19:21:30.496Z,16.77
2018-05-11T19:23:58.248Z,16.57
2018-05-11T19:26:25.805Z,16.60
2018-05-11T19:28:53.750Z,16.83
2018-05-11T19:31:21.305Z,17.77
2018-05-11T19:33:49.099Z,17.30
2018-05-11T19:36:16.811Z,16.30
2018-05-11T19:38:44.627Z,16.63
2018-05-11T19:41:12.287Z,17.17
2018-05-11T19:43:42.000Z,15.60
2018-05-11T19:46:10.090Z,16.93
2018-05-11T19:48:37.700Z,16.50
2018-05-11T19:51:06.792Z,16.37
2018-05-11T19:53:34.466Z,16.90
2018-05-11T19:56:02.160Z,17.20
2018-05-11T19:58:29.958Z,16.60
2018-05-11T20:00:57.781Z,16.77
2018-05-11T20:03:25.545Z,17.50
2018-05-11T20:05:54.846Z,17.90
2018-05-11T20:08:22.814Z,16.57
2018-05-11T20:10:50.757Z,16.53
2018-05-11T20:13:18.854Z,18.13
2018-05-11T20:15:50.819Z,15.70
2018-05-11T20:18:18.819Z,16.30
2018-05-11T20:20:46.564Z,16.53
2018-05-11T20:23:14.413Z,17.40
2018-05-11T20:25:42.487Z,18.13
2018-05-11T20:28:10.203Z,16.73
2018-05-11T20:30:38.017Z,18.90
2018-05-11T20:33:05.890Z,18.00
2018-05-11T20:35:33.630Z,17.57
2018-05-11T20:38:01.964Z,18.60
2018-05-11T20:40:29.972Z,18.63
2018-05-11T20:42:58.163Z,19.40
2018-05-11T20:45:26.036Z,18.33
2018-05-11T20:47:54.208Z,18.50
2018-05-11T20:50:22.283Z,18.33
2018-05-11T20:52:50.149Z,18.90
2018-05-11T20:55:18.543Z,19.00
2018-05-11T20:57:46.403Z,18.67
2018-05-11T21:00:15.401Z,19.50
2018-05-11T21:02:43.973Z,19.60
2018-05-11T21:05:11.733Z,19.07
2018-05-11T21:07:39.721Z,17.13
2018-05-11T21:10:08.311Z,18.17
2018-05-11T21:12:36.581Z,18.10
2018-05-11T21:15:04.640Z,19.63
2018-05-11T21:17:33.421Z,18.33
2018-05-11T21:20:01.588Z,18.87
2018-05-11T21:22:29.900Z,17.30
2018-05-11T21:24:57.739Z,17.23
2018-05-11T21:27:25.604Z,18.60
2018-05-11T21:29:53.149Z,16.03
2018-05-11T21:32:22.288Z,16.83
2018-05-11T21:34:49.921Z,17.50
2018-05-11T21:37:17.584Z,19.00
2018-05-11T21:39:45.756Z,17.27
2018-05-11T21:42:13.292Z,17.63
2018-05-11T21:44:40.820Z,18.20
2018-05-11T21:47:08.377Z,16.70
2018-05-11T21:49:36.073Z,16.50
2018-05-11T21:52:04.192Z,19.10
2018-05-11T21:54:31.931Z,18.63
2018-05-11T21:56:59.557Z,19.50
2018-05-11T21:59:27.116Z,17.37
2018-05-11T22:01:54.797Z,18.20
2018-05-11T22:04:22.478Z,17.70
2018-05-11T22:06:50.011Z,16.77
2018-05-11T22:09:17.602Z,18.10
2018-05-11T22:11:45.282Z,18.73
2018-05-11T22:14:12.919Z,18.60
2018-05-11T22:16:40.632Z,17.80
2018-05-11T22:19:08.242Z,20.00
2018-05-11T22:21:35.834Z,18.80
2018-05-11T22:24:05.502Z,18.20
2018-05-11T22:26:33.094Z,17.40
2018-05-11T22:29:00.620Z,18.77
2018-05-11T22:31:28.394Z,20.30
2018-05-11T22:33:55.913Z,19.20
2018-05-11T22:36:23.457Z,17.20
2018-05-11T22:38:51.153Z,17.63
2018-05-11T22:41:18.718Z,16.43
2018-05-11T22:43:46.397Z,15.87
2018-05-11T22:46:14.954Z,18.10
2018-05-11T22:48:42.544Z,18.20
2018-05-11T22:51:10.904Z,19.60
2018-05-11T22:53:38.793Z,18.83
2018-05-11T22:56:07.105Z,17.90
2018-05-11T22:58:34.825Z,17.60
2018-05-11T23:01:02.568Z,19.80
2018-05-11T23:03:30.080Z,19.73
2018-05-11T23:05:58.016Z,18.73
2018-05-11T23:08:25.760Z,19.73
2018-05-11T23:10:53.277Z,18.20
2018-05-11T23:13:20.793Z,18.60
2018-05-11T23:15:48.593Z,18.70
2018-05-11T23:18:16.121Z,20.00
2018-05-11T23:20:43.642Z,17.13
2018-05-11T23:23:11.348Z,21.10
2018-05-11T23:25:38.870Z,23.23
2018-05-11T23:28:07.789Z,21.90
2018-05-11T23:30:35.728Z,22.47
2018-05-11T23:33:03.251Z,23.47
2018-05-11T23:35:30.778Z,25.27
2018-05-11T23:37:58.336Z,24.23
2018-05-11T23:40:25.868Z,23.13
2018-05-11T23:42:53.385Z,26.00
2018-05-11T23:45:20.941Z,24.10
2018-05-11T23:47:48.461Z,24.40
2018-05-11T23:50:16.727Z,23.23
2018-05-11T23:52:45.226Z,24.53
2018-05-11T23:55:12.747Z,24.60
2018-05-11T23:57:40.276Z,22.57
